sensor_id;sensor_type;location;lat;lon;timestamp;P1;durP1;ratioP1;P2;durP2;ratioP2
58472;SDS011;44775;51.564;5.460;2023-11-22T00:00:32;29.23;;;17.85;;
58472;SDS011;44775;51.564;5.460;2023-11-22T00:02:57;34.05;;;19.65;;
58472;SDS011;44775;51.564;5.460;2023-11-22T00:05:22;28.25;;;17.88;;
58472;SDS011;44775;51.564;5.460;2023-11-22T00:07:47;29.45;;;19.50;;
58472;SDS011;44775;51.564;5.460;2023-11-22T00:10:13;23.40;;;16.25;;
58472;SDS011;44775;51.564;5.460;2023-11-22T00:12:38;31.42;;;18.90;;
58472;SDS011;44775;51.564;5.460;2023-11-22T00:15:04;28.30;;;17.50;;
58472;SDS011;44775;51.564;5.460;2023-11-22T00:17:34;30.00;;;18.05;;
58472;SDS011;44775;51.564;5.460;2023-11-22T00:20:00;30.60;;;18.50;;
58472;SDS011;44775;51.564;5.460;2023-11-22T00:22:30;29.92;;;17.67;;
58472;SDS011;44775;51.564;5.460;2023-11-22T00:24:57;33.95;;;19.27;;
58472;SDS011;44775;51.564;5.460;2023-11-22T00:27:22;32.05;;;18.92;;
58472;SDS011;44775;51.564;5.460;2023-11-22T00:29:48;31.42;;;19.42;;
58472;SDS011;44775;51.564;5.460;2023-11-22T00:32:13;29.73;;;18.83;;
58472;SDS011;44775;51.564;5.460;2023-11-22T00:34:39;27.85;;;16.45;;
58472;SDS011;44775;51.564;5.460;2023-11-22T00:37:04;32.72;;;17.38;;
58472;SDS011;44775;51.564;5.460;2023-11-22T00:39:29;36.50;;;20.77;;
58472;SDS011;44775;51.564;5.460;2023-11-22T00:41:55;35.63;;;19.98;;
58472;SDS011;44775;51.564;5.460;2023-11-22T00:44:20;34.53;;;20.60;;
58472;SDS011;44775;51.564;5.460;2023-11-22T00:46:46;34.45;;;20.73;;
58472;SDS011;44775;51.564;5.460;2023-11-22T00:49:11;23.85;;;14.95;;
58472;SDS011;44775;51.564;5.460;2023-11-22T00:51:38;32.40;;;19.42;;
58472;SDS011;44775;51.564;5.460;2023-11-22T00:54:03;27.15;;;16.70;;
58472;SDS011;44775;51.564;5.460;2023-11-22T00:56:28;31.95;;;19.25;;
58472;SDS011;44775;51.564;5.460;2023-11-22T00:58:54;27.80;;;18.77;;
58472;SDS011;44775;51.564;5.460;2023-11-22T01:01:20;28.02;;;18.23;;
58472;SDS011;44775;51.564;5.460;2023-11-22T01:03:45;28.98;;;18.35;;
58472;SDS011;44775;51.564;5.460;2023-11-22T01:06:11;28.90;;;18.15;;
58472;SDS011;44775;51.564;5.460;2023-11-22T01:08:37;32.75;;;19.95;;
58472;SDS011;44775;51.564;5.460;2023-11-22T01:11:03;34.55;;;19.27;;
58472;SDS011;44775;51.564;5.460;2023-11-22T01:13:29;34.13;;;18.55;;
58472;SDS011;44775;51.564;5.460;2023-11-22T01:15:54;33.30;;;19.73;;
58472;SDS011;44775;51.564;5.460;2023-11-22T01:18:20;35.38;;;19.83;;
58472;SDS011;44775;51.564;5.460;2023-11-22T01:20:45;32.17;;;19.27;;
58472;SDS011;44775;51.564;5.460;2023-11-22T01:23:11;35.17;;;19.17;;
58472;SDS011;44775;51.564;5.460;2023-11-22T01:25:36;32.47;;;19.27;;
58472;SDS011;44775;51.564;5.460;2023-11-22T01:28:02;34.03;;;19.02;;
58472;SDS011;44775;51.564;5.460;2023-11-22T01:30:28;37.40;;;20.58;;
58472;SDS011;44775;51.564;5.460;2023-11-22T01:32:54;38.20;;;21.48;;
58472;SDS011;44775;51.564;5.460;2023-11-22T01:35:20;37.67;;;20.70;;
58472;SDS011;44775;51.564;5.460;2023-11-22T01:37:45;39.08;;;21.50;;
58472;SDS011;44775;51.564;5.460;2023-11-22T01:40:11;35.88;;;20.77;;
58472;SDS011;44775;51.564;5.460;2023-11-22T01:42:37;35.22;;;19.80;;
58472;SDS011;44775;51.564;5.460;2023-11-22T01:45:05;40.50;;;22.05;;
58472;SDS011;44775;51.564;5.460;2023-11-22T01:47:31;39.95;;;23.27;;
58472;SDS011;44775;51.564;5.460;2023-11-22T01:49:56;38.75;;;22.65;;
58472;SDS011;44775;51.564;5.460;2023-11-22T01:52:22;41.25;;;21.58;;
58472;SDS011;44775;51.564;5.460;2023-11-22T01:54:47;39.85;;;20.35;;
58472;SDS011;44775;51.564;5.460;2023-11-22T01:57:13;41.72;;;22.27;;
58472;SDS011;44775;51.564;5.460;2023-11-22T01:59:39;33.42;;;17.00;;
58472;SDS011;44775;51.564;5.460;2023-11-22T02:02:05;44.60;;;23.05;;
58472;SDS011;44775;51.564;5.460;2023-11-22T02:04:30;45.00;;;22.85;;
58472;SDS011;44775;51.564;5.460;2023-11-22T02:06:56;40.05;;;21.15;;
58472;SDS011;44775;51.564;5.460;2023-11-22T02:09:21;43.08;;;21.63;;
58472;SDS011;44775;51.564;5.460;2023-11-22T02:11:47;37.15;;;20.23;;
58472;SDS011;44775;51.564;5.460;2023-11-22T02:14:14;41.00;;;22.80;;
58472;SDS011;44775;51.564;5.460;2023-11-22T02:16:39;38.25;;;21.15;;
58472;SDS011;44775;51.564;5.460;2023-11-22T02:19:06;38.35;;;22.35;;
58472;SDS011;44775;51.564;5.460;2023-11-22T02:21:32;39.80;;;22.73;;
58472;SDS011;44775;51.564;5.460;2023-11-22T02:23:58;41.80;;;21.00;;
58472;SDS011;44775;51.564;5.460;2023-11-22T02:26:23;38.67;;;21.45;;
58472;SDS011;44775;51.564;5.460;2023-11-22T02:28:49;39.67;;;21.27;;
58472;SDS011;44775;51.564;5.460;2023-11-22T02:31:15;37.10;;;22.25;;
58472;SDS011;44775;51.564;5.460;2023-11-22T02:33:40;37.97;;;21.38;;
58472;SDS011;44775;51.564;5.460;2023-11-22T02:36:07;36.92;;;22.88;;
58472;SDS011;44775;51.564;5.460;2023-11-22T02:38:33;40.25;;;22.15;;
58472;SDS011;44775;51.564;5.460;2023-11-22T02:41:00;43.35;;;22.05;;
58472;SDS011;44775;51.564;5.460;2023-11-22T02:43:26;39.55;;;20.90;;
58472;SDS011;44775;51.564;5.460;2023-11-22T02:45:51;37.35;;;20.83;;
58472;SDS011;44775;51.564;5.460;2023-11-22T02:48:17;43.33;;;21.48;;
58472;SDS011;44775;51.564;5.460;2023-11-22T02:50:43;39.90;;;20.95;;
58472;SDS011;44775;51.564;5.460;2023-11-22T02:53:09;41.30;;;21.70;;
58472;SDS011;44775;51.564;5.460;2023-11-22T02:55:34;43.55;;;22.98;;
58472;SDS011;44775;51.564;5.460;2023-11-22T02:58:00;47.72;;;23.52;;
58472;SDS011;44775;51.564;5.460;2023-11-22T03:00:25;46.22;;;22.35;;
58472;SDS011;44775;51.564;5.460;2023-11-22T03:02:50;47.25;;;22.77;;
58472;SDS011;44775;51.564;5.460;2023-11-22T03:05:19;43.63;;;23.27;;
58472;SDS011;44775;51.564;5.460;2023-11-22T03:07:47;47.15;;;25.08;;
58472;SDS011;44775;51.564;5.460;2023-11-22T03:10:13;46.42;;;25.75;;
58472;SDS011;44775;51.564;5.460;2023-11-22T03:12:39;46.30;;;23.90;;
58472;SDS011;44775;51.564;5.460;2023-11-22T03:15:04;47.05;;;22.70;;
58472;SDS011;44775;51.564;5.460;2023-11-22T03:17:30;49.20;;;23.90;;
58472;SDS011;44775;51.564;5.460;2023-11-22T03:19:56;45.90;;;23.13;;
58472;SDS011;44775;51.564;5.460;2023-11-22T03:22:25;46.63;;;24.77;;
58472;SDS011;44775;51.564;5.460;2023-11-22T03:24:51;45.55;;;24.75;;
58472;SDS011;44775;51.564;5.460;2023-11-22T03:27:17;49.58;;;25.85;;
58472;SDS011;44775;51.564;5.460;2023-11-22T03:29:43;49.88;;;24.83;;
58472;SDS011;44775;51.564;5.460;2023-11-22T03:32:09;45.10;;;21.95;;
58472;SDS011;44775;51.564;5.460;2023-11-22T03:34:34;51.20;;;24.80;;
58472;SDS011;44775;51.564;5.460;2023-11-22T03:37:00;48.97;;;24.58;;
58472;SDS011;44775;51.564;5.460;2023-11-22T03:39:25;49.55;;;25.70;;
58472;SDS011;44775;51.564;5.460;2023-11-22T03:41:51;50.05;;;25.48;;
58472;SDS011;44775;51.564;5.460;2023-11-22T03:44:17;46.85;;;24.48;;
58472;SDS011;44775;51.564;5.460;2023-11-22T03:46:42;53.45;;;26.50;;
58472;SDS011;44775;51.564;5.460;2023-11-22T03:49:07;53.55;;;25.38;;
58472;SDS011;44775;51.564;5.460;2023-11-22T03:51:33;53.20;;;27.25;;
58472;SDS011;44775;51.564;5.460;2023-11-22T03:53:59;51.22;;;26.33;;
58472;SDS011;44775;51.564;5.460;2023-11-22T03:56:25;54.03;;;26.45;;
58472;SDS011;44775;51.564;5.460;2023-11-22T03:58:50;53.03;;;26.77;;
58472;SDS011;44775;51.564;5.460;2023-11-22T04:01:16;55.70;;;27.42;;
58472;SDS011;44775;51.564;5.460;2023-11-22T04:03:41;56.17;;;26.75;;
58472;SDS011;44775;51.564;5.460;2023-11-22T04:06:07;59.85;;;27.95;;
58472;SDS011;44775;51.564;5.460;2023-11-22T04:08:32;62.05;;;29.40;;
58472;SDS011;44775;51.564;5.460;2023-11-22T04:10:57;58.05;;;28.10;;
58472;SDS011;44775;51.564;5.460;2023-11-22T04:13:23;59.47;;;28.02;;
58472;SDS011;44775;51.564;5.460;2023-11-22T04:15:49;58.42;;;27.88;;
58472;SDS011;44775;51.564;5.460;2023-11-22T04:18:15;56.50;;;27.27;;
58472;SDS011;44775;51.564;5.460;2023-11-22T04:20:41;68.05;;;30.35;;
58472;SDS011;44775;51.564;5.460;2023-11-22T04:23:06;62.40;;;28.90;;
58472;SDS011;44775;51.564;5.460;2023-11-22T04:25:31;67.60;;;29.30;;
58472;SDS011;44775;51.564;5.460;2023-11-22T04:27:59;65.93;;;28.45;;
58472;SDS011;44775;51.564;5.460;2023-11-22T04:30:24;65.93;;;29.10;;
58472;SDS011;44775;51.564;5.460;2023-11-22T04:32:50;69.57;;;29.42;;
58472;SDS011;44775;51.564;5.460;2023-11-22T04:35:15;69.38;;;28.45;;
58472;SDS011;44775;51.564;5.460;2023-11-22T04:37:40;66.57;;;29.27;;
58472;SDS011;44775;51.564;5.460;2023-11-22T04:40:06;67.72;;;29.75;;
58472;SDS011;44775;51.564;5.460;2023-11-22T04:42:36;68.55;;;29.45;;
58472;SDS011;44775;51.564;5.460;2023-11-22T04:45:02;65.20;;;28.85;;
58472;SDS011;44775;51.564;5.460;2023-11-22T04:47:31;61.17;;;27.10;;
58472;SDS011;44775;51.564;5.460;2023-11-22T04:49:56;64.05;;;28.20;;
58472;SDS011;44775;51.564;5.460;2023-11-22T04:52:21;68.25;;;28.75;;
58472;SDS011;44775;51.564;5.460;2023-11-22T04:54:47;59.75;;;27.42;;
58472;SDS011;44775;51.564;5.460;2023-11-22T04:57:12;62.30;;;29.10;;
58472;SDS011;44775;51.564;5.460;2023-11-22T04:59:37;64.15;;;28.08;;
58472;SDS011;44775;51.564;5.460;2023-11-22T05:02:03;65.78;;;28.38;;
58472;SDS011;44775;51.564;5.460;2023-11-22T05:04:28;58.97;;;27.83;;
58472;SDS011;44775;51.564;5.460;2023-11-22T05:06:54;74.00;;;28.80;;
58472;SDS011;44775;51.564;5.460;2023-11-22T05:09:19;68.32;;;29.25;;
58472;SDS011;44775;51.564;5.460;2023-11-22T05:11:45;64.00;;;27.48;;
58472;SDS011;44775;51.564;5.460;2023-11-22T05:14:10;59.53;;;27.85;;
58472;SDS011;44775;51.564;5.460;2023-11-22T05:16:36;61.40;;;27.48;;
58472;SDS011;44775;51.564;5.460;2023-11-22T05:19:01;61.72;;;26.75;;
58472;SDS011;44775;51.564;5.460;2023-11-22T05:21:27;63.30;;;28.15;;
58472;SDS011;44775;51.564;5.460;2023-11-22T05:23:52;63.65;;;29.15;;
58472;SDS011;44775;51.564;5.460;2023-11-22T05:26:19;66.60;;;28.67;;
58472;SDS011;44775;51.564;5.460;2023-11-22T05:28:45;63.75;;;29.60;;
58472;SDS011;44775;51.564;5.460;2023-11-22T05:31:12;69.25;;;28.42;;
58472;SDS011;44775;51.564;5.460;2023-11-22T05:33:37;69.85;;;29.67;;
58472;SDS011;44775;51.564;5.460;2023-11-22T05:36:02;70.55;;;29.33;;
58472;SDS011;44775;51.564;5.460;2023-11-22T05:38:28;72.43;;;29.20;;
58472;SDS011;44775;51.564;5.460;2023-11-22T05:40:53;76.30;;;30.48;;
58472;SDS011;44775;51.564;5.460;2023-11-22T05:43:19;71.97;;;30.63;;
58472;SDS011;44775;51.564;5.460;2023-11-22T05:45:50;79.63;;;31.42;;
58472;SDS011;44775;51.564;5.460;2023-11-22T05:48:15;74.18;;;30.05;;
58472;SDS011;44775;51.564;5.460;2023-11-22T05:50:41;74.38;;;30.27;;
58472;SDS011;44775;51.564;5.460;2023-11-22T05:53:06;83.68;;;32.65;;
58472;SDS011;44775;51.564;5.460;2023-11-22T05:55:31;77.47;;;30.13;;
58472;SDS011;44775;51.564;5.460;2023-11-22T05:57:57;76.18;;;30.35;;
58472;SDS011;44775;51.564;5.460;2023-11-22T06:00:22;76.72;;;30.33;;
58472;SDS011;44775;51.564;5.460;2023-11-22T06:02:47;83.07;;;30.63;;
58472;SDS011;44775;51.564;5.460;2023-11-22T06:05:13;86.78;;;32.92;;
58472;SDS011;44775;51.564;5.460;2023-11-22T06:07:38;77.72;;;29.80;;
58472;SDS011;44775;51.564;5.460;2023-11-22T06:10:03;77.85;;;29.05;;
58472;SDS011;44775;51.564;5.460;2023-11-22T06:12:29;78.53;;;29.00;;
58472;SDS011;44775;51.564;5.460;2023-11-22T06:14:54;82.07;;;30.63;;
58472;SDS011;44775;51.564;5.460;2023-11-22T06:17:19;81.50;;;31.50;;
58472;SDS011;44775;51.564;5.460;2023-11-22T06:19:45;87.82;;;33.22;;
58472;SDS011;44775;51.564;5.460;2023-11-22T06:22:10;83.55;;;32.22;;
58472;SDS011;44775;51.564;5.460;2023-11-22T06:24:36;86.63;;;32.55;;
58472;SDS011;44775;51.564;5.460;2023-11-22T06:27:01;82.07;;;31.38;;
58472;SDS011;44775;51.564;5.460;2023-11-22T06:29:28;84.35;;;32.17;;
58472;SDS011;44775;51.564;5.460;2023-11-22T06:31:54;85.95;;;32.25;;
58472;SDS011;44775;51.564;5.460;2023-11-22T06:34:19;87.72;;;32.85;;
58472;SDS011;44775;51.564;5.460;2023-11-22T06:36:44;88.57;;;33.35;;
58472;SDS011;44775;51.564;5.460;2023-11-22T06:39:10;89.95;;;35.17;;
58472;SDS011;44775;51.564;5.460;2023-11-22T06:41:38;93.68;;;36.28;;
58472;SDS011;44775;51.564;5.460;2023-11-22T06:44:06;97.75;;;37.80;;
58472;SDS011;44775;51.564;5.460;2023-11-22T06:46:31;96.95;;;37.42;;
58472;SDS011;44775;51.564;5.460;2023-11-22T06:48:56;95.45;;;37.78;;
58472;SDS011;44775;51.564;5.460;2023-11-22T06:51:22;98.95;;;37.25;;
58472;SDS011;44775;51.564;5.460;2023-11-22T06:53:47;97.78;;;37.17;;
58472;SDS011;44775;51.564;5.460;2023-11-22T06:56:12;102.03;;;36.42;;
58472;SDS011;44775;51.564;5.460;2023-11-22T06:58:39;107.05;;;35.83;;
58472;SDS011;44775;51.564;5.460;2023-11-22T07:01:04;119.10;;;36.10;;
58472;SDS011;44775;51.564;5.460;2023-11-22T07:03:30;113.93;;;35.28;;
58472;SDS011;44775;51.564;5.460;2023-11-22T07:05:56;119.78;;;34.22;;
58472;SDS011;44775;51.564;5.460;2023-11-22T07:08:21;198.85;;;37.42;;
58472;SDS011;44775;51.564;5.460;2023-11-22T07:10:47;184.93;;;34.10;;
58472;SDS011;44775;51.564;5.460;2023-11-22T07:13:13;203.32;;;34.30;;
58472;SDS011;44775;51.564;5.460;2023-11-22T07:15:38;197.00;;;34.67;;
58472;SDS011;44775;51.564;5.460;2023-11-22T07:18:04;159.55;;;32.90;;
58472;SDS011;44775;51.564;5.460;2023-11-22T07:20:30;171.20;;;30.30;;
58472;SDS011;44775;51.564;5.460;2023-11-22T07:22:56;139.98;;;31.13;;
58472;SDS011;44775;51.564;5.460;2023-11-22T07:25:22;206.75;;;30.42;;
58472;SDS011;44775;51.564;5.460;2023-11-22T07:27:50;164.52;;;30.85;;
58472;SDS011;44775;51.564;5.460;2023-11-22T07:30:16;121.10;;;28.13;;
58472;SDS011;44775;51.564;5.460;2023-11-22T07:32:44;120.30;;;28.95;;
58472;SDS011;44775;51.564;5.460;2023-11-22T07:35:09;133.38;;;30.50;;
58472;SDS011;44775;51.564;5.460;2023-11-22T07:37:35;104.03;;;29.55;;
58472;SDS011;44775;51.564;5.460;2023-11-22T07:40:09;95.32;;;28.73;;
58472;SDS011;44775;51.564;5.460;2023-11-22T07:42:38;96.57;;;27.55;;
58472;SDS011;44775;51.564;5.460;2023-11-22T07:45:03;84.13;;;27.70;;
58472;SDS011;44775;51.564;5.460;2023-11-22T07:47:29;98.78;;;29.13;;
58472;SDS011;44775;51.564;5.460;2023-11-22T07:49:55;92.80;;;28.58;;
58472;SDS011;44775;51.564;5.460;2023-11-22T07:52:23;89.00;;;29.02;;
58472;SDS011;44775;51.564;5.460;2023-11-22T07:54:57;89.60;;;29.08;;
58472;SDS011;44775;51.564;5.460;2023-11-22T07:57:22;103.57;;;29.85;;
58472;SDS011;44775;51.564;5.460;2023-11-22T07:59:48;129.85;;;31.67;;
58472;SDS011;44775;51.564;5.460;2023-11-22T08:02:14;66.68;;;27.55;;
58472;SDS011;44775;51.564;5.460;2023-11-22T08:07:10;131.57;;;32.08;;
58472;SDS011;44775;51.564;5.460;2023-11-22T08:09:36;148.68;;;32.15;;
58472;SDS011;44775;51.564;5.460;2023-11-22T08:12:01;99.72;;;31.67;;
58472;SDS011;44775;51.564;5.460;2023-11-22T08:14:28;120.72;;;31.67;;
58472;SDS011;44775;51.564;5.460;2023-11-22T08:16:53;118.25;;;30.38;;
58472;SDS011;44775;51.564;5.460;2023-11-22T08:19:19;104.82;;;30.48;;
58472;SDS011;44775;51.564;5.460;2023-11-22T08:21:44;92.95;;;30.75;;
58472;SDS011;44775;51.564;5.460;2023-11-22T08:24:10;142.70;;;31.90;;
58472;SDS011;44775;51.564;5.460;2023-11-22T08:26:37;112.50;;;30.33;;
58472;SDS011;44775;51.564;5.460;2023-11-22T08:29:03;120.65;;;32.15;;
58472;SDS011;44775;51.564;5.460;2023-11-22T08:31:29;91.15;;;32.53;;
58472;SDS011;44775;51.564;5.460;2023-11-22T08:33:54;49.65;;;22.33;;
58472;SDS011;44775;51.564;5.460;2023-11-22T08:36:19;106.88;;;35.03;;
58472;SDS011;44775;51.564;5.460;2023-11-22T08:38:45;109.63;;;34.83;;
58472;SDS011;44775;51.564;5.460;2023-11-22T08:41:11;100.57;;;35.00;;
58472;SDS011;44775;51.564;5.460;2023-11-22T08:43:38;94.88;;;34.50;;
58472;SDS011;44775;51.564;5.460;2023-11-22T08:46:03;114.85;;;34.17;;
58472;SDS011;44775;51.564;5.460;2023-11-22T08:48:29;106.03;;;32.47;;
58472;SDS011;44775;51.564;5.460;2023-11-22T08:50:55;107.88;;;33.83;;
58472;SDS011;44775;51.564;5.460;2023-11-22T08:53:20;111.60;;;33.65;;
58472;SDS011;44775;51.564;5.460;2023-11-22T08:55:47;128.93;;;36.65;;
58472;SDS011;44775;51.564;5.460;2023-11-22T08:58:12;132.82;;;38.58;;
58472;SDS011;44775;51.564;5.460;2023-11-22T09:00:38;64.60;;;23.02;;
58472;SDS011;44775;51.564;5.460;2023-11-22T09:03:04;156.10;;;38.25;;
58472;SDS011;44775;51.564;5.460;2023-11-22T09:05:29;125.10;;;37.40;;
58472;SDS011;44775;51.564;5.460;2023-11-22T09:07:54;76.63;;;27.00;;
58472;SDS011;44775;51.564;5.460;2023-11-22T09:10:22;138.20;;;40.05;;
58472;SDS011;44775;51.564;5.460;2023-11-22T09:12:47;50.88;;;18.23;;
58472;SDS011;44775;51.564;5.460;2023-11-22T09:15:13;142.23;;;37.45;;
58472;SDS011;44775;51.564;5.460;2023-11-22T09:17:44;82.22;;;23.90;;
58472;SDS011;44775;51.564;5.460;2023-11-22T09:20:11;151.40;;;40.90;;
58472;SDS011;44775;51.564;5.460;2023-11-22T09:22:47;132.95;;;40.15;;
58472;SDS011;44775;51.564;5.460;2023-11-22T09:25:17;112.75;;;36.05;;
58472;SDS011;44775;51.564;5.460;2023-11-22T09:27:45;113.88;;;37.83;;
58472;SDS011;44775;51.564;5.460;2023-11-22T09:30:13;110.00;;;36.30;;
58472;SDS011;44775;51.564;5.460;2023-11-22T09:33:07;94.47;;;36.80;;
58472;SDS011;44775;51.564;5.460;2023-11-22T09:35:36;86.75;;;33.25;;
58472;SDS011;44775;51.564;5.460;2023-11-22T09:38:05;86.38;;;35.45;;
58472;SDS011;44775;51.564;5.460;2023-11-22T09:40:36;85.68;;;34.88;;
58472;SDS011;44775;51.564;5.460;2023-11-22T09:43:07;88.95;;;34.03;;
58472;SDS011;44775;51.564;5.460;2023-11-22T09:45:33;92.00;;;32.58;;
58472;SDS011;44775;51.564;5.460;2023-11-22T09:47:58;92.75;;;36.05;;
58472;SDS011;44775;51.564;5.460;2023-11-22T09:53:11;90.78;;;36.13;;
58472;SDS011;44775;51.564;5.460;2023-11-22T09:55:41;90.03;;;35.88;;
58472;SDS011;44775;51.564;5.460;2023-11-22T09:58:08;99.00;;;37.67;;
58472;SDS011;44775;51.564;5.460;2023-11-22T10:00:38;98.13;;;37.67;;
58472;SDS011;44775;51.564;5.460;2023-11-22T10:03:06;95.18;;;37.67;;
58472;SDS011;44775;51.564;5.460;2023-11-22T10:05:31;100.25;;;37.38;;
58472;SDS011;44775;51.564;5.460;2023-11-22T10:07:56;106.53;;;36.95;;
58472;SDS011;44775;51.564;5.460;2023-11-22T10:10:22;105.15;;;38.40;;
58472;SDS011;44775;51.564;5.460;2023-11-22T10:12:48;99.28;;;36.55;;
58472;SDS011;44775;51.564;5.460;2023-11-22T10:15:13;93.22;;;36.20;;
58472;SDS011;44775;51.564;5.460;2023-11-22T10:17:41;99.70;;;35.97;;
58472;SDS011;44775;51.564;5.460;2023-11-22T10:20:25;95.10;;;38.40;;
58472;SDS011;44775;51.564;5.460;2023-11-22T10:23:03;92.57;;;35.35;;
58472;SDS011;44775;51.564;5.460;2023-11-22T10:25:33;92.60;;;36.28;;
58472;SDS011;44775;51.564;5.460;2023-11-22T10:27:59;89.25;;;37.97;;
58472;SDS011;44775;51.564;5.460;2023-11-22T10:30:24;83.80;;;35.95;;
58472;SDS011;44775;51.564;5.460;2023-11-22T10:32:51;76.20;;;35.10;;
58472;SDS011;44775;51.564;5.460;2023-11-22T10:35:18;77.72;;;34.90;;
58472;SDS011;44775;51.564;5.460;2023-11-22T10:37:47;87.22;;;34.50;;
58472;SDS011;44775;51.564;5.460;2023-11-22T10:40:12;87.13;;;36.30;;
58472;SDS011;44775;51.564;5.460;2023-11-22T10:42:40;87.68;;;36.63;;
58472;SDS011;44775;51.564;5.460;2023-11-22T10:45:07;83.00;;;35.58;;
58472;SDS011;44775;51.564;5.460;2023-11-22T10:47:35;79.28;;;35.05;;
58472;SDS011;44775;51.564;5.460;2023-11-22T10:50:03;80.35;;;34.97;;
58472;SDS011;44775;51.564;5.460;2023-11-22T10:52:29;84.65;;;36.35;;
58472;SDS011;44775;51.564;5.460;2023-11-22T10:55:00;90.82;;;38.00;;
58472;SDS011;44775;51.564;5.460;2023-11-22T10:57:28;88.07;;;36.63;;
58472;SDS011;44775;51.564;5.460;2023-11-22T10:59:56;80.10;;;35.08;;
58472;SDS011;44775;51.564;5.460;2023-11-22T11:02:31;80.22;;;35.72;;
58472;SDS011;44775;51.564;5.460;2023-11-22T11:05:02;79.85;;;33.88;;
58472;SDS011;44775;51.564;5.460;2023-11-22T11:07:37;73.18;;;33.50;;
58472;SDS011;44775;51.564;5.460;2023-11-22T11:10:06;80.13;;;34.22;;
58472;SDS011;44775;51.564;5.460;2023-11-22T11:12:32;86.57;;;36.85;;
58472;SDS011;44775;51.564;5.460;2023-11-22T11:14:58;74.07;;;31.65;;
58472;SDS011;44775;51.564;5.460;2023-11-22T11:17:24;70.15;;;32.47;;
58472;SDS011;44775;51.564;5.460;2023-11-22T11:19:50;67.85;;;31.10;;
58472;SDS011;44775;51.564;5.460;2023-11-22T11:22:15;69.18;;;30.98;;
58472;SDS011;44775;51.564;5.460;2023-11-22T11:24:44;70.80;;;30.80;;
58472;SDS011;44775;51.564;5.460;2023-11-22T11:27:12;62.42;;;27.95;;
58472;SDS011;44775;51.564;5.460;2023-11-22T11:29:38;65.85;;;29.02;;
58472;SDS011;44775;51.564;5.460;2023-11-22T11:32:11;63.47;;;28.63;;
58472;SDS011;44775;51.564;5.460;2023-11-22T11:34:54;63.75;;;29.85;;
58472;SDS011;44775;51.564;5.460;2023-11-22T11:37:21;61.80;;;27.75;;
58472;SDS011;44775;51.564;5.460;2023-11-22T11:39:46;66.13;;;29.95;;
58472;SDS011;44775;51.564;5.460;2023-11-22T11:42:12;67.22;;;30.17;;
58472;SDS011;44775;51.564;5.460;2023-11-22T11:44:50;62.50;;;29.23;;
58472;SDS011;44775;51.564;5.460;2023-11-22T11:49:42;63.70;;;30.25;;
58472;SDS011;44775;51.564;5.460;2023-11-22T11:52:07;64.93;;;29.70;;
58472;SDS011;44775;51.564;5.460;2023-11-22T11:54:33;65.18;;;30.77;;
58472;SDS011;44775;51.564;5.460;2023-11-22T11:56:59;62.05;;;31.05;;
58472;SDS011;44775;51.564;5.460;2023-11-22T11:59:25;67.50;;;31.45;;
58472;SDS011;44775;51.564;5.460;2023-11-22T12:01:54;66.53;;;31.88;;
58472;SDS011;44775;51.564;5.460;2023-11-22T12:04:22;63.85;;;30.83;;
58472;SDS011;44775;51.564;5.460;2023-11-22T12:06:49;73.93;;;33.20;;
58472;SDS011;44775;51.564;5.460;2023-11-22T12:09:21;71.75;;;32.40;;
58472;SDS011;44775;51.564;5.460;2023-11-22T12:11:49;70.63;;;32.25;;
58472;SDS011;44775;51.564;5.460;2023-11-22T12:14:14;72.72;;;32.50;;
58472;SDS011;44775;51.564;5.460;2023-11-22T12:16:40;71.55;;;31.38;;
58472;SDS011;44775;51.564;5.460;2023-11-22T12:19:07;64.75;;;31.80;;
58472;SDS011;44775;51.564;5.460;2023-11-22T12:21:34;64.57;;;31.08;;
58472;SDS011;44775;51.564;5.460;2023-11-22T12:23:59;67.45;;;32.00;;
58472;SDS011;44775;51.564;5.460;2023-11-22T12:26:25;64.55;;;29.88;;
58472;SDS011;44775;51.564;5.460;2023-11-22T12:28:50;63.33;;;30.83;;
58472;SDS011;44775;51.564;5.460;2023-11-22T12:31:17;62.60;;;31.52;;
58472;SDS011;44775;51.564;5.460;2023-11-22T12:33:43;58.90;;;29.65;;
58472;SDS011;44775;51.564;5.460;2023-11-22T12:36:11;56.95;;;29.17;;
58472;SDS011;44775;51.564;5.460;2023-11-22T12:38:42;55.47;;;29.08;;
58472;SDS011;44775;51.564;5.460;2023-11-22T12:41:07;50.97;;;25.60;;
58472;SDS011;44775;51.564;5.460;2023-11-22T12:43:33;50.92;;;24.65;;
58472;SDS011;44775;51.564;5.460;2023-11-22T12:46:05;51.08;;;26.85;;
58472;SDS011;44775;51.564;5.460;2023-11-22T12:48:32;47.63;;;24.83;;
58472;SDS011;44775;51.564;5.460;2023-11-22T12:50:58;48.88;;;24.90;;
58472;SDS011;44775;51.564;5.460;2023-11-22T12:53:24;47.83;;;25.50;;
58472;SDS011;44775;51.564;5.460;2023-11-22T12:55:53;46.08;;;23.80;;
58472;SDS011;44775;51.564;5.460;2023-11-22T12:58:19;45.10;;;24.20;;
58472;SDS011;44775;51.564;5.460;2023-11-22T13:00:46;45.80;;;25.00;;
58472;SDS011;44775;51.564;5.460;2023-11-22T13:03:12;47.35;;;24.02;;
58472;SDS011;44775;51.564;5.460;2023-11-22T13:05:42;49.47;;;26.02;;
58472;SDS011;44775;51.564;5.460;2023-11-22T13:08:09;51.08;;;25.17;;
58472;SDS011;44775;51.564;5.460;2023-11-22T13:10:46;52.10;;;26.27;;
58472;SDS011;44775;51.564;5.460;2023-11-22T13:13:15;50.50;;;25.42;;
58472;SDS011;44775;51.564;5.460;2023-11-22T13:15:42;51.35;;;25.15;;
58472;SDS011;44775;51.564;5.460;2023-11-22T13:18:07;51.65;;;24.67;;
58472;SDS011;44775;51.564;5.460;2023-11-22T13:20:34;53.17;;;26.45;;
58472;SDS011;44775;51.564;5.460;2023-11-22T13:23:00;53.78;;;26.50;;
58472;SDS011;44775;51.564;5.460;2023-11-22T13:25:27;53.92;;;26.02;;
58472;SDS011;44775;51.564;5.460;2023-11-22T13:27:52;54.67;;;27.20;;
58472;SDS011;44775;51.564;5.460;2023-11-22T13:30:19;55.22;;;28.70;;
58472;SDS011;44775;51.564;5.460;2023-11-22T13:32:47;52.28;;;27.85;;
58472;SDS011;44775;51.564;5.460;2023-11-22T13:35:16;50.80;;;24.38;;
58472;SDS011;44775;51.564;5.460;2023-11-22T13:37:45;51.10;;;28.85;;
58472;SDS011;44775;51.564;5.460;2023-11-22T13:40:13;53.25;;;26.35;;
58472;SDS011;44775;51.564;5.460;2023-11-22T13:42:43;52.42;;;27.00;;
58472;SDS011;44775;51.564;5.460;2023-11-22T13:45:15;57.13;;;27.45;;
58472;SDS011;44775;51.564;5.460;2023-11-22T13:47:42;54.90;;;28.50;;
58472;SDS011;44775;51.564;5.460;2023-11-22T13:50:22;59.50;;;30.05;;
58472;SDS011;44775;51.564;5.460;2023-11-22T13:52:48;65.38;;;33.13;;
58472;SDS011;44775;51.564;5.460;2023-11-22T13:55:14;73.43;;;35.22;;
58472;SDS011;44775;51.564;5.460;2023-11-22T13:57:41;77.97;;;38.45;;
58472;SDS011;44775;51.564;5.460;2023-11-22T14:00:07;77.80;;;37.03;;
58472;SDS011;44775;51.564;5.460;2023-11-22T14:02:46;76.80;;;37.80;;
58472;SDS011;44775;51.564;5.460;2023-11-22T14:07:38;77.00;;;37.00;;
58472;SDS011;44775;51.564;5.460;2023-11-22T14:10:03;77.72;;;37.60;;
58472;SDS011;44775;51.564;5.460;2023-11-22T14:12:31;79.25;;;38.47;;
58472;SDS011;44775;51.564;5.460;2023-11-22T14:14:57;78.50;;;37.85;;
58472;SDS011;44775;51.564;5.460;2023-11-22T14:17:23;73.95;;;37.75;;
58472;SDS011;44775;51.564;5.460;2023-11-22T14:19:49;80.90;;;37.75;;
58472;SDS011;44775;51.564;5.460;2023-11-22T14:22:15;79.95;;;38.55;;
58472;SDS011;44775;51.564;5.460;2023-11-22T14:24:40;74.90;;;35.47;;
58472;SDS011;44775;51.564;5.460;2023-11-22T14:27:05;72.95;;;33.22;;